createdAt,value
2022-10-14T00:00:39.639Z,80.90
2022-10-14T00:03:05.978Z,81.33
2022-10-14T00:05:32.344Z,81.21
2022-10-14T00:07:58.698Z,81.63
2022-10-14T00:10:25.176Z,81.67
2022-10-14T00:12:51.766Z,82.10
2022-10-14T00:15:18.321Z,82.05
2022-10-14T00:17:44.711Z,81.66
2022-10-14T00:20:12.001Z,81.27
2022-10-14T00:22:39.941Z,81.52
2022-10-14T00:25:07.445Z,81.69
2022-10-14T00:27:34.646Z,81.75
2022-10-14T00:30:01.185Z,81.62
2022-10-14T00:32:30.721Z,81.56
2022-10-14T00:34:57.224Z,81.55
2022-10-14T00:37:24.132Z,81.74
2022-10-14T00:39:56.097Z,81.43
2022-10-14T00:42:23.387Z,81.55
2022-10-14T00:44:49.724Z,81.88
2022-10-14T00:47:16.360Z,81.94
2022-10-14T00:49:44.001Z,82.33
2022-10-14T00:52:18.997Z,82.10
2022-10-14T00:54:50.740Z,82.07
2022-10-14T00:57:17.676Z,82.24
2022-10-14T00:59:44.034Z,81.79
2022-10-14T01:02:10.391Z,81.61
2022-10-14T01:04:38.566Z,81.46
2022-10-14T01:07:19.108Z,81.40
2022-10-14T01:09:45.837Z,81.22
2022-10-14T01:12:29.023Z,81.59
2022-10-14T01:15:08.298Z,81.51
2022-10-14T01:17:53.912Z,81.71
2022-10-14T01:20:20.717Z,81.15
2022-10-14T01:22:58.340Z,80.78
2022-10-14T01:25:33.058Z,80.42
2022-10-14T01:28:06.737Z,80.55
2022-10-14T01:30:35.485Z,80.70
2022-10-14T01:33:14.106Z,80.71
2022-10-14T01:35:49.394Z,80.52
2022-10-14T01:38:33.859Z,81.20
2022-10-14T01:41:04.161Z,80.96
2022-10-14T01:43:31.787Z,80.97
2022-10-14T01:45:59.962Z,82.21
2022-10-14T01:48:29.131Z,82.55
2022-10-14T01:50:58.381Z,82.97
2022-10-14T01:53:26.466Z,83.12
2022-10-14T01:55:54.179Z,82.97
2022-10-14T01:58:22.325Z,83.16
2022-10-14T02:00:48.629Z,82.55
2022-10-14T02:03:14.957Z,82.95
2022-10-14T02:05:44.922Z,83.19
2022-10-14T02:08:20.859Z,83.31
2022-10-14T02:11:05.873Z,83.37
2022-10-14T02:13:50.725Z,82.99
2022-10-14T02:16:28.796Z,81.98
2022-10-14T02:19:07.574Z,81.36
2022-10-14T02:21:43.973Z,81.65
2022-10-14T02:24:26.418Z,82.28
2022-10-14T02:26:54.621Z,81.78
2022-10-14T02:29:22.115Z,81.78
2022-10-14T02:31:49.388Z,82.29
2022-10-14T02:34:18.281Z,83.02
2022-10-14T02:36:46.056Z,83.11
2022-10-14T02:39:13.708Z,82.88
2022-10-14T02:41:40.066Z,82.67
2022-10-14T02:44:06.396Z,82.07
2022-10-14T02:46:33.548Z,83.29
2022-10-14T02:49:00.029Z,82.07
2022-10-14T02:51:26.416Z,82.37
2022-10-14T02:53:52.819Z,82.80
2022-10-14T02:56:19.154Z,82.53
2022-10-14T02:58:45.465Z,82.90
2022-10-14T03:01:11.773Z,82.76
2022-10-14T03:03:38.089Z,82.23
2022-10-14T03:06:04.545Z,82.58
2022-10-14T03:08:30.901Z,82.58
2022-10-14T03:10:57.258Z,83.00
2022-10-14T03:13:23.552Z,83.21
2022-10-14T03:15:52.800Z,83.39
2022-10-14T03:18:19.146Z,82.91
2022-10-14T03:20:45.885Z,81.93
2022-10-14T03:23:12.521Z,83.42
2022-10-14T03:25:38.842Z,83.47
2022-10-14T03:28:05.335Z,83.84
2022-10-14T03:30:31.682Z,83.16
2022-10-14T03:32:58.449Z,84.51
2022-10-14T03:35:24.846Z,84.51
2022-10-14T03:37:53.143Z,84.09
2022-10-14T03:40:19.463Z,83.66
2022-10-14T03:42:45.845Z,84.73
2022-10-14T03:45:12.242Z,84.43
2022-10-14T03:47:38.666Z,85.04
2022-10-14T03:50:05.445Z,84.94
2022-10-14T03:52:32.550Z,85.34
2022-10-14T03:54:59.278Z,84.45
2022-10-14T03:57:25.962Z,84.71
2022-10-14T03:59:52.265Z,85.17
2022-10-14T04:02:18.735Z,83.52
2022-10-14T04:04:45.357Z,84.85
2022-10-14T04:07:11.660Z,84.45
2022-10-14T04:09:37.982Z,84.54
2022-10-14T04:12:04.410Z,84.25
2022-10-14T04:14:30.901Z,84.72
2022-10-14T04:16:57.180Z,85.00
2022-10-14T04:19:23.477Z,85.10
2022-10-14T04:21:49.773Z,84.92
2022-10-14T04:24:16.111Z,84.81
2022-10-14T04:26:42.553Z,85.27
2022-10-14T04:29:08.827Z,85.40
2022-10-14T04:31:35.138Z,85.29
2022-10-14T04:34:01.655Z,85.05
2022-10-14T04:36:28.009Z,83.82
2022-10-14T04:38:54.285Z,84.65
2022-10-14T04:41:20.603Z,83.82
2022-10-14T04:43:46.927Z,83.67
2022-10-14T04:46:13.226Z,83.29
2022-10-14T04:48:39.515Z,83.27
2022-10-14T04:51:05.931Z,83.09
2022-10-14T04:53:32.334Z,83.82
2022-10-14T04:55:58.617Z,84.33
2022-10-14T04:58:24.926Z,84.14
2022-10-14T05:00:53.583Z,84.57
2022-10-14T05:03:19.886Z,84.86
2022-10-14T05:05:46.157Z,85.02
2022-10-14T05:08:12.825Z,84.80
2022-10-14T05:10:39.188Z,84.79
2022-10-14T05:13:05.616Z,84.39
2022-10-14T05:15:31.939Z,84.69
2022-10-14T05:17:58.375Z,85.29
2022-10-14T05:20:24.773Z,84.78
2022-10-14T05:22:51.084Z,84.74
2022-10-14T05:25:17.439Z,85.46
2022-10-14T05:27:43.760Z,84.79
2022-10-14T05:30:10.639Z,85.00
2022-10-14T05:32:37.069Z,85.19
2022-10-14T05:35:03.868Z,84.78
2022-10-14T05:37:30.169Z,85.09
2022-10-14T05:39:56.452Z,84.80
2022-10-14T05:42:23.184Z,84.82
2022-10-14T05:44:49.725Z,85.37
2022-10-14T05:47:16.339Z,85.47
2022-10-14T05:49:42.774Z,84.91
2022-10-14T05:52:09.084Z,85.25
2022-10-14T05:54:35.361Z,85.75
2022-10-14T05:57:01.667Z,85.51
2022-10-14T05:59:29.778Z,85.59
2022-10-14T06:01:56.960Z,86.01
2022-10-14T06:04:23.409Z,86.49
2022-10-14T06:06:49.723Z,86.33
2022-10-14T06:09:16.490Z,86.35
2022-10-14T06:11:42.872Z,86.83
2022-10-14T06:14:09.529Z,86.94
2022-10-14T06:16:35.883Z,86.35
2022-10-14T06:19:02.211Z,86.22
2022-10-14T06:21:28.573Z,86.76
2022-10-14T06:23:55.055Z,86.17
2022-10-14T06:26:22.228Z,85.97
2022-10-14T06:28:48.667Z,85.98
2022-10-14T06:31:15.185Z,85.68
2022-10-14T06:33:43.529Z,85.68
2022-10-14T06:36:10.055Z,84.74
2022-10-14T06:38:36.450Z,86.21
2022-10-14T06:41:02.784Z,86.22
2022-10-14T06:43:29.072Z,86.80
2022-10-14T06:45:56.789Z,86.78
2022-10-14T06:48:23.110Z,86.70
2022-10-14T06:50:49.460Z,86.93
2022-10-14T06:53:15.816Z,87.11
2022-10-14T06:55:42.154Z,86.55
2022-10-14T06:58:08.449Z,86.95
2022-10-14T07:00:34.842Z,87.34
2022-10-14T07:03:01.171Z,86.98
2022-10-14T07:05:27.583Z,86.96
2022-10-14T07:07:53.988Z,87.22
2022-10-14T07:10:20.421Z,86.24
2022-10-14T07:12:46.776Z,87.34
2022-10-14T07:15:13.320Z,87.38
2022-10-14T07:17:39.827Z,87.30
2022-10-14T07:20:06.421Z,86.96
2022-10-14T07:22:37.665Z,87.19
2022-10-14T07:25:05.117Z,86.95
2022-10-14T07:27:31.479Z,86.87
2022-10-14T07:29:57.860Z,87.23
2022-10-14T07:32:24.152Z,87.00
2022-10-14T07:34:51.558Z,87.26
2022-10-14T07:37:17.989Z,87.33
2022-10-14T07:39:44.423Z,87.06
2022-10-14T07:42:10.835Z,87.55
2022-10-14T07:44:40.357Z,87.35
2022-10-14T07:47:06.686Z,87.12
2022-10-14T07:49:33.326Z,86.67
2022-10-14T07:51:59.633Z,86.72
2022-10-14T07:54:26.776Z,86.71
2022-10-14T07:56:53.141Z,87.07
2022-10-14T07:59:20.328Z,87.11
2022-10-14T08:01:47.592Z,86.12
2022-10-14T08:04:13.942Z,86.53
2022-10-14T08:06:40.693Z,86.91
2022-10-14T08:09:07.688Z,86.29
2022-10-14T08:11:34.065Z,86.85
2022-10-14T08:14:00.785Z,87.03
2022-10-14T08:16:31.457Z,87.06
2022-10-14T08:18:58.776Z,86.09
2022-10-14T08:21:25.893Z,87.09
2022-10-14T08:23:53.018Z,87.19
2022-10-14T08:26:22.082Z,87.07
2022-10-14T08:28:49.285Z,87.23
2022-10-14T08:31:16.072Z,87.01
2022-10-14T08:33:42.389Z,86.85
2022-10-14T08:36:08.973Z,86.85
2022-10-14T08:38:35.329Z,86.94
2022-10-14T08:41:14.530Z,86.21
2022-10-14T08:43:40.797Z,85.82
2022-10-14T08:46:12.862Z,86.51
2022-10-14T08:48:39.741Z,86.39
2022-10-14T08:51:15.533Z,86.26
2022-10-14T08:53:57.918Z,86.49
2022-10-14T08:56:24.271Z,85.64
2022-10-14T08:58:51.867Z,86.06
2022-10-14T09:01:35.820Z,86.52
2022-10-14T09:04:06.828Z,85.79
2022-10-14T09:06:38.283Z,85.77
2022-10-14T09:09:10.788Z,85.79
2022-10-14T09:11:39.067Z,86.01
2022-10-14T09:14:07.101Z,87.28
2022-10-14T09:16:36.052Z,85.78
2022-10-14T09:19:04.393Z,86.76
2022-10-14T09:21:53.468Z,86.59
2022-10-14T09:24:21.720Z,86.91
2022-10-14T09:26:54.261Z,87.50
2022-10-14T09:29:24.724Z,86.82
2022-10-14T09:31:51.695Z,86.79
2022-10-14T09:34:25.529Z,86.29
2022-10-14T09:39:24.618Z,85.57
2022-10-14T09:41:53.207Z,85.97
2022-10-14T09:44:25.276Z,85.75
2022-10-14T09:47:08.165Z,86.31
2022-10-14T09:49:42.543Z,85.85
2022-10-14T09:52:20.196Z,85.81
2022-10-14T09:54:52.375Z,86.11
2022-10-14T09:57:19.976Z,86.27
2022-10-14T09:59:57.399Z,86.08
2022-10-14T10:02:25.842Z,86.39
2022-10-14T10:04:54.773Z,86.84
2022-10-14T10:07:24.718Z,86.41
2022-10-14T10:09:55.482Z,86.42
2022-10-14T10:12:23.739Z,86.91
2022-10-14T10:15:03.600Z,86.42
2022-10-14T10:17:36.041Z,86.53
2022-10-14T10:20:06.833Z,86.46
2022-10-14T10:22:38.757Z,87.20
2022-10-14T10:25:08.077Z,86.29
2022-10-14T10:27:39.637Z,85.81
2022-10-14T10:30:18.698Z,85.43
2022-10-14T10:33:17.297Z,85.46
2022-10-14T10:35:52.568Z,85.52
2022-10-14T10:38:23.729Z,85.15
2022-10-14T10:41:08.743Z,85.08
2022-10-14T10:43:36.302Z,84.85
2022-10-14T10:46:05.497Z,84.90
2022-10-14T10:48:39.947Z,84.74
2022-10-14T10:51:29.687Z,84.84
2022-10-14T10:54:22.404Z,84.57
2022-10-14T10:56:52.391Z,84.41
2022-10-14T11:02:15.873Z,84.35
2022-10-14T11:04:53.700Z,84.29
2022-10-14T11:07:45.415Z,84.38
2022-10-14T11:10:30.343Z,84.35
2022-10-14T11:13:04.298Z,85.55
2022-10-14T11:15:39.551Z,84.78
2022-10-14T11:18:12.508Z,84.84
2022-10-14T11:20:58.889Z,84.68
2022-10-14T11:23:35.268Z,84.66
2022-10-14T11:26:21.048Z,84.40
2022-10-14T11:29:03.081Z,84.43
2022-10-14T11:31:36.837Z,84.20
2022-10-14T11:34:13.965Z,84.23
2022-10-14T11:36:59.001Z,84.23
2022-10-14T11:39:37.992Z,84.34
2022-10-14T11:42:14.033Z,84.05
2022-10-14T11:44:41.909Z,83.65
2022-10-14T11:47:15.306Z,83.98
2022-10-14T11:49:50.897Z,83.91
2022-10-14T11:52:21.895Z,83.71
2022-10-14T11:54:50.464Z,83.78
2022-10-14T11:57:32.739Z,83.76
2022-10-14T12:00:07.000Z,83.68
2022-10-14T12:02:55.985Z,83.99
2022-10-14T12:05:25.355Z,83.75
2022-10-14T12:07:54.689Z,83.73
2022-10-14T12:10:27.675Z,83.66
2022-10-14T12:12:54.714Z,83.81
2022-10-14T12:15:22.385Z,83.90
2022-10-14T12:17:58.724Z,83.74
2022-10-14T12:20:25.033Z,83.60
2022-10-14T12:22:51.699Z,83.72
2022-10-14T12:25:21.152Z,83.85
2022-10-14T12:27:48.170Z,83.71
2022-10-14T12:30:34.924Z,83.74
2022-10-14T12:33:02.586Z,83.92
2022-10-14T12:35:47.555Z,83.83
2022-10-14T12:38:13.948Z,83.80
2022-10-14T12:40:40.295Z,84.00
2022-10-14T12:43:13.410Z,84.06
2022-10-14T12:45:47.357Z,84.16
2022-10-14T12:48:23.999Z,84.19
2022-10-14T12:50:54.496Z,84.48
2022-10-14T12:53:25.786Z,84.52
2022-10-14T12:55:54.297Z,84.96
2022-10-14T12:58:35.989Z,84.75
2022-10-14T13:01:22.689Z,84.72
2022-10-14T13:03:57.481Z,84.48
2022-10-14T13:06:37.947Z,84.51
2022-10-14T13:09:13.686Z,84.96
2022-10-14T13:11:41.236Z,84.77
2022-10-14T13:14:27.251Z,85.30
2022-10-14T13:16:53.511Z,85.89
2022-10-14T13:19:32.245Z,85.18
2022-10-14T13:21:59.128Z,85.38
2022-10-14T13:24:27.576Z,85.21
2022-10-14T13:26:53.917Z,84.91
2022-10-14T13:29:20.199Z,84.79
2022-10-14T13:31:55.329Z,84.97
2022-10-14T13:34:34.815Z,85.17
2022-10-14T13:37:01.917Z,84.97
2022-10-14T13:39:32.487Z,84.73
2022-10-14T13:41:59.045Z,84.92
2022-10-14T13:44:26.414Z,84.63
2022-10-14T13:46:53.431Z,84.65
2022-10-14T13:49:40.606Z,84.59
2022-10-14T13:52:13.506Z,84.59
2022-10-14T13:54:39.809Z,84.54
2022-10-14T14:02:43.084Z,85.02
2022-10-14T14:05:15.020Z,85.12
2022-10-14T14:10:29.385Z,84.80
2022-10-14T14:12:56.218Z,84.87
2022-10-14T14:15:27.005Z,84.81
2022-10-14T14:17:53.406Z,84.88
2022-10-14T14:20:21.528Z,84.77
2022-10-14T14:22:47.861Z,85.19
2022-10-14T14:26:01.181Z,84.93
2022-10-14T14:28:13.605Z,85.17
2022-10-14T14:30:40.100Z,85.08
2022-10-14T14:33:15.411Z,85.30
2022-10-14T14:35:43.422Z,85.55
2022-10-14T14:38:23.629Z,85.27
2022-10-14T14:40:59.482Z,85.50
2022-10-14T14:43:28.920Z,85.52
2022-10-14T14:45:58.540Z,85.69
2022-10-14T14:48:25.014Z,85.58
2022-10-14T14:50:51.499Z,85.66
2022-10-14T14:53:22.465Z,85.65
2022-10-14T14:56:13.563Z,85.56
2022-10-14T14:58:50.643Z,85.71
2022-10-14T15:01:21.648Z,85.82
2022-10-14T15:04:13.587Z,85.46
2022-10-14T15:06:51.364Z,85.73
2022-10-14T15:09:24.137Z,85.58
2022-10-14T15:11:52.314Z,85.50
2022-10-14T15:14:27.458Z,85.72
2022-10-14T15:16:56.091Z,85.88
2022-10-14T15:19:37.278Z,86.15
2022-10-14T15:22:08.820Z,86.04
2022-10-14T15:24:35.150Z,85.78
2022-10-14T15:27:22.633Z,85.96
2022-10-14T15:30:08.910Z,86.59
2022-10-14T15:32:35.217Z,86.24
2022-10-14T15:35:01.509Z,86.59
2022-10-14T15:37:27.861Z,86.51
2022-10-14T15:40:14.446Z,86.22
2022-10-14T15:42:40.794Z,86.13
2022-10-14T15:45:08.078Z,86.10
2022-10-14T15:47:34.940Z,86.15
2022-10-14T15:50:05.177Z,85.90
2022-10-14T15:52:32.530Z,85.93
2022-10-14T15:54:59.350Z,85.77
2022-10-14T15:57:26.025Z,85.76
2022-10-14T15:59:53.617Z,85.61
2022-10-14T16:02:25.775Z,85.50
2022-10-14T16:05:19.364Z,85.34
2022-10-14T16:07:39.259Z,85.24
2022-10-14T16:10:07.910Z,85.22
2022-10-14T16:12:34.442Z,85.19
2022-10-14T16:15:02.375Z,85.06
2022-10-14T16:17:28.969Z,85.08
2022-10-14T16:19:55.417Z,85.11
2022-10-14T16:22:21.832Z,85.06
2022-10-14T16:24:48.175Z,85.10
2022-10-14T16:27:14.519Z,85.12
2022-10-14T16:29:40.897Z,85.24
2022-10-14T16:32:08.777Z,85.21
2022-10-14T16:34:35.760Z,85.02
2022-10-14T16:37:02.048Z,85.11
2022-10-14T16:39:28.616Z,85.12
2022-10-14T16:41:55.987Z,85.06
2022-10-14T16:44:25.152Z,85.17
2022-10-14T16:47:10.937Z,85.26
2022-10-14T16:49:37.420Z,85.10
2022-10-14T16:52:03.845Z,85.14
2022-10-14T16:54:30.153Z,85.19
2022-10-14T16:56:56.846Z,85.00
2022-10-14T16:59:23.863Z,85.12
2022-10-14T17:01:51.014Z,84.91
2022-10-14T17:04:19.541Z,84.89
2022-10-14T17:06:46.393Z,85.07
2022-10-14T17:09:12.938Z,85.17
2022-10-14T17:11:42.194Z,85.09
2022-10-14T17:14:10.815Z,85.06
2022-10-14T17:16:37.289Z,84.89
2022-10-14T17:19:03.779Z,84.76
2022-10-14T17:21:30.065Z,84.80
2022-10-14T17:24:03.193Z,84.67
2022-10-14T17:26:30.557Z,84.63
2022-10-14T17:28:57.360Z,84.47
2022-10-14T17:31:24.474Z,84.51
2022-10-14T17:33:50.876Z,84.48
2022-10-14T17:36:24.429Z,84.55
2022-10-14T17:38:51.852Z,84.56
2022-10-14T17:41:18.682Z,84.54
2022-10-14T17:43:49.291Z,84.67
2022-10-14T17:46:17.201Z,84.74
2022-10-14T17:48:43.577Z,84.66
2022-10-14T17:51:10.547Z,84.75
2022-10-14T17:53:37.274Z,84.88
2022-10-14T17:56:07.701Z,84.93
2022-10-14T17:58:34.069Z,84.89
2022-10-14T18:01:04.449Z,84.85
2022-10-14T18:03:32.166Z,84.78
2022-10-14T18:05:58.551Z,84.98
2022-10-14T18:08:25.103Z,84.86
2022-10-14T18:10:51.433Z,84.92
2022-10-14T18:13:17.749Z,84.79
2022-10-14T18:15:44.784Z,84.93
2022-10-14T18:18:11.118Z,84.70
2022-10-14T18:20:38.035Z,84.82
2022-10-14T18:23:04.382Z,84.78
2022-10-14T18:25:30.658Z,84.88
2022-10-14T18:27:56.947Z,84.87
2022-10-14T18:30:23.274Z,84.94
2022-10-14T18:32:49.580Z,85.19
2022-10-14T18:35:16.832Z,84.51
2022-10-14T18:37:43.168Z,84.59
2022-10-14T18:40:09.715Z,84.99
2022-10-14T18:42:36.041Z,84.86
2022-10-14T18:45:02.319Z,84.98
2022-10-14T18:47:30.379Z,84.93
2022-10-14T18:49:59.476Z,85.14
2022-10-14T18:52:25.999Z,85.02
2022-10-14T18:54:52.389Z,85.06
2022-10-14T18:57:18.721Z,84.98
2022-10-14T18:59:45.031Z,85.22
2022-10-14T19:02:12.972Z,84.93
2022-10-14T19:04:39.510Z,85.01
2022-10-14T19:07:07.229Z,85.07
2022-10-14T19:09:33.733Z,85.12
2022-10-14T19:12:00.077Z,84.93
2022-10-14T19:14:28.444Z,84.39
2022-10-14T19:16:54.746Z,84.66
2022-10-14T19:19:21.102Z,84.31
2022-10-14T19:21:53.932Z,84.45
2022-10-14T19:24:20.362Z,84.25
2022-10-14T19:26:47.309Z,84.24
2022-10-14T19:29:15.139Z,84.03
2022-10-14T19:31:43.461Z,84.31
2022-10-14T19:34:11.619Z,84.53
2022-10-14T19:36:38.624Z,84.58
2022-10-14T19:39:06.523Z,84.36
2022-10-14T19:41:34.015Z,84.28
2022-10-14T19:44:00.377Z,84.33
2022-10-14T19:46:27.827Z,84.40
2022-10-14T19:48:58.327Z,84.31
2022-10-14T19:51:27.481Z,84.51
2022-10-14T19:53:54.649Z,84.35
2022-10-14T19:56:21.016Z,84.41
2022-10-14T19:58:49.939Z,84.24
2022-10-14T20:01:17.048Z,84.26
2022-10-14T20:03:43.940Z,84.22
2022-10-14T20:06:11.224Z,84.14
2022-10-14T20:08:37.846Z,84.10
2022-10-14T20:11:05.197Z,84.13
2022-10-14T20:13:31.539Z,84.08
2022-10-14T20:15:59.010Z,84.26
2022-10-14T20:18:25.541Z,84.05
2022-10-14T20:20:52.182Z,84.11
2022-10-14T20:23:19.009Z,84.20
2022-10-14T20:25:45.991Z,84.14
2022-10-14T20:28:12.521Z,84.10
2022-10-14T20:30:39.528Z,83.78
2022-10-14T20:33:05.991Z,83.70
2022-10-14T20:35:32.542Z,83.91
2022-10-14T20:37:59.037Z,83.96
2022-10-14T20:40:25.575Z,84.11
2022-10-14T20:42:53.368Z,83.68
2022-10-14T20:45:19.676Z,84.01
2022-10-14T20:47:53.328Z,84.12
2022-10-14T20:50:21.414Z,83.61
2022-10-14T20:52:48.504Z,83.74
2022-10-14T20:55:15.358Z,83.65
2022-10-14T20:57:42.409Z,84.01
2022-10-14T21:00:09.406Z,83.89
2022-10-14T21:02:35.863Z,83.70
2022-10-14T21:05:02.367Z,83.68
2022-10-14T21:07:28.803Z,83.64
2022-10-14T21:09:55.176Z,83.59
2022-10-14T21:12:21.896Z,83.68
2022-10-14T21:14:48.429Z,83.53
2022-10-14T21:17:14.892Z,83.50
2022-10-14T21:19:41.280Z,83.83
2022-10-14T21:22:08.945Z,83.89
2022-10-14T21:24:36.133Z,83.93
2022-10-14T21:27:02.494Z,83.62
2022-10-14T21:29:28.827Z,83.37
2022-10-14T21:31:55.113Z,83.29
2022-10-14T21:34:23.048Z,83.69
2022-10-14T21:36:49.407Z,83.53
2022-10-14T21:39:18.821Z,83.72
2022-10-14T21:41:45.644Z,83.80
2022-10-14T21:44:16.074Z,83.64
2022-10-14T21:46:42.446Z,83.84
2022-10-14T21:49:12.136Z,83.69
2022-10-14T21:51:38.628Z,83.56
2022-10-14T21:54:05.334Z,83.79
2022-10-14T21:56:31.636Z,83.80
2022-10-14T21:58:58.492Z,83.62
2022-10-14T22:01:29.140Z,83.59
2022-10-14T22:03:57.593Z,83.53
2022-10-14T22:06:24.291Z,83.74
2022-10-14T22:08:51.677Z,83.88
2022-10-14T22:11:21.553Z,84.08
2022-10-14T22:13:48.215Z,84.06
2022-10-14T22:16:16.857Z,84.12
2022-10-14T22:18:44.949Z,84.51
2022-10-14T22:21:11.369Z,84.58
2022-10-14T22:23:40.139Z,84.09
2022-10-14T22:26:11.695Z,83.65
2022-10-14T22:28:38.299Z,83.95
2022-10-14T22:31:04.989Z,84.21
2022-10-14T22:33:31.496Z,84.09
2022-10-14T22:36:08.267Z,83.61
2022-10-14T22:38:36.511Z,83.71
2022-10-14T22:41:05.227Z,83.94
2022-10-14T22:43:32.872Z,83.94
2022-10-14T22:46:03.821Z,84.00
2022-10-14T22:48:30.705Z,83.99
2022-10-14T22:51:01.397Z,84.06
2022-10-14T22:53:28.269Z,84.10
2022-10-14T22:55:54.671Z,83.70
2022-10-14T22:58:21.205Z,83.85
2022-10-14T23:00:47.561Z,84.02
2022-10-14T23:03:15.390Z,83.99
2022-10-14T23:05:42.568Z,83.96
2022-10-14T23:08:11.713Z,83.92
2022-10-14T23:10:38.520Z,83.89
2022-10-14T23:13:05.981Z,84.05
2022-10-14T23:15:32.959Z,83.88
2022-10-14T23:18:00.189Z,83.97
2022-10-14T23:20:27.311Z,84.26
2022-10-14T23:22:54.172Z,84.06
2022-10-14T23:25:20.938Z,83.84
2022-10-14T23:27:47.559Z,83.67
2022-10-14T23:30:14.024Z,83.89
2022-10-14T23:32:41.121Z,83.83
2022-10-14T23:35:07.626Z,83.79
2022-10-14T23:37:34.733Z,83.87
2022-10-14T23:40:04.819Z,83.83
2022-10-14T23:42:31.569Z,83.80
2022-10-14T23:44:57.904Z,83.67
2022-10-14T23:47:24.654Z,83.80
2022-10-14T23:49:51.228Z,83.31
2022-10-14T23:52:17.653Z,83.58
2022-10-14T23:54:44.143Z,83.65
2022-10-14T23:57:10.763Z,83.56
2022-10-14T23:59:37.098Z,83.49
